sensor_id;sensor_type;location;lat;lon;timestamp;P1;durP1;ratioP1;P2;durP2;ratioP2
44110;SDS011;29774;52.664;5.074;2023-04-29T00:00:04;19.05;;;12.13;;
44110;SDS011;29774;52.664;5.074;2023-04-29T00:02:34;18.73;;;11.15;;
44110;SDS011;29774;52.664;5.074;2023-04-29T00:05:00;16.35;;;11.43;;
44110;SDS011;29774;52.664;5.074;2023-04-29T00:07:28;21.75;;;11.23;;
44110;SDS011;29774;52.664;5.074;2023-04-29T00:09:55;22.65;;;11.98;;
44110;SDS011;29774;52.664;5.074;2023-04-29T00:12:20;20.13;;;11.18;;
44110;SDS011;29774;52.664;5.074;2023-04-29T00:14:46;16.13;;;9.98;;
44110;SDS011;29774;52.664;5.074;2023-04-29T00:17:11;15.15;;;10.25;;
44110;SDS011;29774;52.664;5.074;2023-04-29T00:19:37;15.82;;;10.48;;
44110;SDS011;29774;52.664;5.074;2023-04-29T00:22:02;16.88;;;10.90;;
44110;SDS011;29774;52.664;5.074;2023-04-29T00:24:28;14.10;;;9.30;;
44110;SDS011;29774;52.664;5.074;2023-04-29T00:26:54;11.77;;;7.95;;
44110;SDS011;29774;52.664;5.074;2023-04-29T00:29:19;17.90;;;10.73;;
44110;SDS011;29774;52.664;5.074;2023-04-29T00:31:47;18.42;;;10.98;;
44110;SDS011;29774;52.664;5.074;2023-04-29T00:34:13;19.80;;;11.32;;
44110;SDS011;29774;52.664;5.074;2023-04-29T00:36:38;18.98;;;11.27;;
44110;SDS011;29774;52.664;5.074;2023-04-29T00:39:04;18.13;;;11.23;;
44110;SDS011;29774;52.664;5.074;2023-04-29T00:41:29;16.13;;;10.73;;
44110;SDS011;29774;52.664;5.074;2023-04-29T00:43:56;16.75;;;11.73;;
44110;SDS011;29774;52.664;5.074;2023-04-29T00:46:22;18.13;;;12.50;;
44110;SDS011;29774;52.664;5.074;2023-04-29T00:48:48;17.65;;;10.85;;
44110;SDS011;29774;52.664;5.074;2023-04-29T00:51:13;23.45;;;12.02;;
44110;SDS011;29774;52.664;5.074;2023-04-29T00:53:41;17.00;;;11.40;;
44110;SDS011;29774;52.664;5.074;2023-04-29T00:56:07;21.48;;;12.25;;
44110;SDS011;29774;52.664;5.074;2023-04-29T00:58:34;21.40;;;11.43;;
44110;SDS011;29774;52.664;5.074;2023-04-29T01:01:00;20.92;;;12.23;;
44110;SDS011;29774;52.664;5.074;2023-04-29T01:03:27;20.50;;;12.35;;
44110;SDS011;29774;52.664;5.074;2023-04-29T01:11:58;20.95;;;11.77;;
44110;SDS011;29774;52.664;5.074;2023-04-29T01:15:08;17.27;;;11.43;;
44110;SDS011;29774;52.664;5.074;2023-04-29T01:18:03;19.63;;;12.30;;
44110;SDS011;29774;52.664;5.074;2023-04-29T01:20:33;18.35;;;12.05;;
44110;SDS011;29774;52.664;5.074;2023-04-29T01:22:59;17.95;;;11.07;;
44110;SDS011;29774;52.664;5.074;2023-04-29T01:25:25;20.40;;;12.05;;
44110;SDS011;29774;52.664;5.074;2023-04-29T01:27:53;20.55;;;11.68;;
44110;SDS011;29774;52.664;5.074;2023-04-29T01:30:46;16.20;;;11.20;;
44110;SDS011;29774;52.664;5.074;2023-04-29T01:33:22;18.92;;;12.05;;
44110;SDS011;29774;52.664;5.074;2023-04-29T01:36:15;17.98;;;12.02;;
44110;SDS011;29774;52.664;5.074;2023-04-29T01:41:52;19.98;;;11.80;;
44110;SDS011;29774;52.664;5.074;2023-04-29T01:44:26;18.42;;;11.88;;
44110;SDS011;29774;52.664;5.074;2023-04-29T01:46:55;17.77;;;11.30;;
44110;SDS011;29774;52.664;5.074;2023-04-29T01:49:25;20.08;;;11.88;;
44110;SDS011;29774;52.664;5.074;2023-04-29T01:51:52;20.52;;;11.30;;
44110;SDS011;29774;52.664;5.074;2023-04-29T01:54:18;22.80;;;12.18;;
44110;SDS011;29774;52.664;5.074;2023-04-29T01:56:43;18.80;;;12.00;;
44110;SDS011;29774;52.664;5.074;2023-04-29T01:59:09;23.80;;;13.43;;
44110;SDS011;29774;52.664;5.074;2023-04-29T02:01:35;17.42;;;11.15;;
44110;SDS011;29774;52.664;5.074;2023-04-29T02:04:01;23.90;;;12.43;;
44110;SDS011;29774;52.664;5.074;2023-04-29T02:06:27;25.65;;;13.68;;
44110;SDS011;29774;52.664;5.074;2023-04-29T02:08:53;22.67;;;12.85;;
44110;SDS011;29774;52.664;5.074;2023-04-29T02:11:18;22.85;;;13.63;;
44110;SDS011;29774;52.664;5.074;2023-04-29T02:13:45;22.65;;;13.18;;
44110;SDS011;29774;52.664;5.074;2023-04-29T02:16:11;21.25;;;12.45;;
44110;SDS011;29774;52.664;5.074;2023-04-29T02:18:38;20.20;;;12.30;;
44110;SDS011;29774;52.664;5.074;2023-04-29T02:21:04;23.67;;;13.43;;
44110;SDS011;29774;52.664;5.074;2023-04-29T02:23:31;16.77;;;12.07;;
44110;SDS011;29774;52.664;5.074;2023-04-29T02:25:56;18.05;;;11.98;;
44110;SDS011;29774;52.664;5.074;2023-04-29T02:28:22;19.50;;;12.00;;
44110;SDS011;29774;52.664;5.074;2023-04-29T02:30:48;19.98;;;12.05;;
44110;SDS011;29774;52.664;5.074;2023-04-29T02:33:14;21.92;;;12.48;;
44110;SDS011;29774;52.664;5.074;2023-04-29T02:35:40;21.73;;;12.85;;
44110;SDS011;29774;52.664;5.074;2023-04-29T02:38:05;21.35;;;12.10;;
44110;SDS011;29774;52.664;5.074;2023-04-29T02:40:31;15.23;;;11.45;;
44110;SDS011;29774;52.664;5.074;2023-04-29T02:42:57;19.75;;;12.55;;
44110;SDS011;29774;52.664;5.074;2023-04-29T02:45:23;17.85;;;11.98;;
44110;SDS011;29774;52.664;5.074;2023-04-29T02:47:48;19.88;;;11.30;;
44110;SDS011;29774;52.664;5.074;2023-04-29T02:50:14;21.58;;;13.02;;
44110;SDS011;29774;52.664;5.074;2023-04-29T02:52:40;18.58;;;11.65;;
44110;SDS011;29774;52.664;5.074;2023-04-29T02:55:08;21.02;;;11.75;;
44110;SDS011;29774;52.664;5.074;2023-04-29T02:57:34;23.42;;;12.02;;
44110;SDS011;29774;52.664;5.074;2023-04-29T02:59:59;14.82;;;11.45;;
44110;SDS011;29774;52.664;5.074;2023-04-29T03:02:25;18.15;;;11.18;;
44110;SDS011;29774;52.664;5.074;2023-04-29T03:04:51;23.13;;;12.02;;
44110;SDS011;29774;52.664;5.074;2023-04-29T03:07:17;18.90;;;11.13;;
44110;SDS011;29774;52.664;5.074;2023-04-29T03:09:42;18.77;;;10.70;;
44110;SDS011;29774;52.664;5.074;2023-04-29T03:12:08;17.15;;;10.90;;
44110;SDS011;29774;52.664;5.074;2023-04-29T03:14:34;18.08;;;11.75;;
44110;SDS011;29774;52.664;5.074;2023-04-29T03:17:00;18.55;;;11.18;;
44110;SDS011;29774;52.664;5.074;2023-04-29T03:19:26;18.77;;;11.40;;
44110;SDS011;29774;52.664;5.074;2023-04-29T03:21:51;16.30;;;11.20;;
44110;SDS011;29774;52.664;5.074;2023-04-29T03:24:17;16.00;;;11.00;;
44110;SDS011;29774;52.664;5.074;2023-04-29T03:26:42;17.67;;;11.13;;
44110;SDS011;29774;52.664;5.074;2023-04-29T03:29:08;17.73;;;10.82;;
44110;SDS011;29774;52.664;5.074;2023-04-29T03:31:34;13.95;;;11.18;;
44110;SDS011;29774;52.664;5.074;2023-04-29T03:33:59;17.10;;;10.38;;
44110;SDS011;29774;52.664;5.074;2023-04-29T03:36:25;17.02;;;10.20;;
44110;SDS011;29774;52.664;5.074;2023-04-29T03:38:51;16.92;;;10.52;;
44110;SDS011;29774;52.664;5.074;2023-04-29T03:41:17;16.80;;;10.40;;
44110;SDS011;29774;52.664;5.074;2023-04-29T03:43:43;16.92;;;10.43;;
44110;SDS011;29774;52.664;5.074;2023-04-29T03:46:09;17.10;;;10.43;;
44110;SDS011;29774;52.664;5.074;2023-04-29T03:48:34;13.85;;;9.85;;
44110;SDS011;29774;52.664;5.074;2023-04-29T03:51:00;19.05;;;10.75;;
44110;SDS011;29774;52.664;5.074;2023-04-29T03:53:26;16.88;;;10.30;;
44110;SDS011;29774;52.664;5.074;2023-04-29T03:55:52;15.82;;;9.98;;
44110;SDS011;29774;52.664;5.074;2023-04-29T03:58:18;19.70;;;9.95;;
44110;SDS011;29774;52.664;5.074;2023-04-29T04:00:44;17.17;;;10.02;;
44110;SDS011;29774;52.664;5.074;2023-04-29T04:03:10;12.50;;;9.55;;
44110;SDS011;29774;52.664;5.074;2023-04-29T04:05:35;14.18;;;9.50;;
44110;SDS011;29774;52.664;5.074;2023-04-29T04:08:01;15.48;;;9.68;;
44110;SDS011;29774;52.664;5.074;2023-04-29T04:10:27;13.65;;;9.93;;
44110;SDS011;29774;52.664;5.074;2023-04-29T04:12:52;15.60;;;10.23;;
44110;SDS011;29774;52.664;5.074;2023-04-29T04:15:18;14.93;;;9.95;;
44110;SDS011;29774;52.664;5.074;2023-04-29T04:17:43;16.90;;;10.35;;
44110;SDS011;29774;52.664;5.074;2023-04-29T04:20:09;19.38;;;9.90;;
44110;SDS011;29774;52.664;5.074;2023-04-29T04:22:35;18.83;;;10.25;;
44110;SDS011;29774;52.664;5.074;2023-04-29T04:25:02;15.75;;;10.38;;
44110;SDS011;29774;52.664;5.074;2023-04-29T04:27:28;17.83;;;10.30;;
44110;SDS011;29774;52.664;5.074;2023-04-29T04:29:54;16.95;;;10.05;;
44110;SDS011;29774;52.664;5.074;2023-04-29T04:32:23;17.90;;;10.60;;
44110;SDS011;29774;52.664;5.074;2023-04-29T04:34:49;16.95;;;10.90;;
44110;SDS011;29774;52.664;5.074;2023-04-29T04:37:15;23.08;;;10.13;;
44110;SDS011;29774;52.664;5.074;2023-04-29T04:39:41;16.35;;;9.88;;
44110;SDS011;29774;52.664;5.074;2023-04-29T04:42:07;20.30;;;10.93;;
44110;SDS011;29774;52.664;5.074;2023-04-29T04:44:32;18.20;;;10.27;;
44110;SDS011;29774;52.664;5.074;2023-04-29T04:46:58;17.40;;;10.13;;
44110;SDS011;29774;52.664;5.074;2023-04-29T04:49:27;15.60;;;9.38;;
44110;SDS011;29774;52.664;5.074;2023-04-29T04:51:52;15.98;;;8.77;;
44110;SDS011;29774;52.664;5.074;2023-04-29T04:54:18;16.40;;;8.10;;
44110;SDS011;29774;52.664;5.074;2023-04-29T04:56:44;18.67;;;8.95;;
44110;SDS011;29774;52.664;5.074;2023-04-29T04:59:10;15.38;;;9.25;;
44110;SDS011;29774;52.664;5.074;2023-04-29T05:01:35;14.60;;;8.23;;
44110;SDS011;29774;52.664;5.074;2023-04-29T05:04:01;15.02;;;8.85;;
44110;SDS011;29774;52.664;5.074;2023-04-29T05:06:27;15.40;;;8.27;;
44110;SDS011;29774;52.664;5.074;2023-04-29T05:08:53;16.42;;;8.27;;
44110;SDS011;29774;52.664;5.074;2023-04-29T05:11:18;14.15;;;8.40;;
44110;SDS011;29774;52.664;5.074;2023-04-29T05:13:45;15.75;;;7.88;;
44110;SDS011;29774;52.664;5.074;2023-04-29T05:16:12;12.10;;;7.55;;
44110;SDS011;29774;52.664;5.074;2023-04-29T05:18:37;16.35;;;8.18;;
44110;SDS011;29774;52.664;5.074;2023-04-29T05:21:03;12.48;;;8.23;;
44110;SDS011;29774;52.664;5.074;2023-04-29T05:23:29;16.70;;;8.23;;
44110;SDS011;29774;52.664;5.074;2023-04-29T05:25:55;12.25;;;7.95;;
44110;SDS011;29774;52.664;5.074;2023-04-29T05:28:20;17.13;;;8.77;;
44110;SDS011;29774;52.664;5.074;2023-04-29T05:30:49;13.45;;;8.32;;
44110;SDS011;29774;52.664;5.074;2023-04-29T05:33:15;12.73;;;8.45;;
44110;SDS011;29774;52.664;5.074;2023-04-29T05:35:40;13.82;;;8.90;;
44110;SDS011;29774;52.664;5.074;2023-04-29T05:38:06;16.75;;;9.57;;
44110;SDS011;29774;52.664;5.074;2023-04-29T05:40:32;14.10;;;8.25;;
44110;SDS011;29774;52.664;5.074;2023-04-29T05:42:57;16.13;;;9.10;;
44110;SDS011;29774;52.664;5.074;2023-04-29T05:45:23;13.38;;;8.40;;
44110;SDS011;29774;52.664;5.074;2023-04-29T05:47:49;15.35;;;9.18;;
44110;SDS011;29774;52.664;5.074;2023-04-29T05:50:15;19.17;;;9.52;;
44110;SDS011;29774;52.664;5.074;2023-04-29T05:52:41;15.27;;;9.18;;
44110;SDS011;29774;52.664;5.074;2023-04-29T05:55:06;12.75;;;8.90;;
44110;SDS011;29774;52.664;5.074;2023-04-29T05:57:32;14.65;;;9.40;;
44110;SDS011;29774;52.664;5.074;2023-04-29T05:59:58;13.95;;;8.82;;
44110;SDS011;29774;52.664;5.074;2023-04-29T06:02:24;13.95;;;8.48;;
44110;SDS011;29774;52.664;5.074;2023-04-29T06:04:50;14.35;;;9.07;;
44110;SDS011;29774;52.664;5.074;2023-04-29T06:07:16;14.82;;;9.45;;
44110;SDS011;29774;52.664;5.074;2023-04-29T06:09:42;16.50;;;8.10;;
44110;SDS011;29774;52.664;5.074;2023-04-29T06:12:08;12.75;;;6.80;;
44110;SDS011;29774;52.664;5.074;2023-04-29T06:14:34;15.75;;;8.07;;
44110;SDS011;29774;52.664;5.074;2023-04-29T06:16:59;15.18;;;7.55;;
44110;SDS011;29774;52.664;5.074;2023-04-29T06:19:26;10.52;;;5.70;;
44110;SDS011;29774;52.664;5.074;2023-04-29T06:21:51;16.75;;;8.00;;
44110;SDS011;29774;52.664;5.074;2023-04-29T06:24:17;14.98;;;7.47;;
44110;SDS011;29774;52.664;5.074;2023-04-29T06:26:42;12.27;;;7.15;;
44110;SDS011;29774;52.664;5.074;2023-04-29T06:29:08;13.63;;;7.85;;
44110;SDS011;29774;52.664;5.074;2023-04-29T06:31:34;11.25;;;6.60;;
44110;SDS011;29774;52.664;5.074;2023-04-29T06:33:59;12.13;;;7.55;;
44110;SDS011;29774;52.664;5.074;2023-04-29T06:36:25;11.65;;;5.82;;
44110;SDS011;29774;52.664;5.074;2023-04-29T06:38:51;11.32;;;5.50;;
44110;SDS011;29774;52.664;5.074;2023-04-29T06:41:17;12.65;;;5.30;;
44110;SDS011;29774;52.664;5.074;2023-04-29T06:43:42;9.75;;;5.57;;
44110;SDS011;29774;52.664;5.074;2023-04-29T06:46:08;9.95;;;5.35;;
44110;SDS011;29774;52.664;5.074;2023-04-29T06:48:34;7.07;;;4.43;;
44110;SDS011;29774;52.664;5.074;2023-04-29T06:51:00;6.43;;;5.28;;
44110;SDS011;29774;52.664;5.074;2023-04-29T06:53:26;7.13;;;4.15;;
44110;SDS011;29774;52.664;5.074;2023-04-29T06:55:52;8.70;;;5.43;;
44110;SDS011;29774;52.664;5.074;2023-04-29T06:58:17;8.52;;;4.55;;
44110;SDS011;29774;52.664;5.074;2023-04-29T07:00:44;8.85;;;5.35;;
44110;SDS011;29774;52.664;5.074;2023-04-29T07:03:11;11.50;;;6.60;;
44110;SDS011;29774;52.664;5.074;2023-04-29T07:05:37;10.20;;;6.63;;
44110;SDS011;29774;52.664;5.074;2023-04-29T07:08:04;14.65;;;6.50;;
44110;SDS011;29774;52.664;5.074;2023-04-29T07:10:31;9.57;;;5.22;;
44110;SDS011;29774;52.664;5.074;2023-04-29T07:12:56;11.55;;;4.93;;
44110;SDS011;29774;52.664;5.074;2023-04-29T07:15:23;10.35;;;5.78;;
44110;SDS011;29774;52.664;5.074;2023-04-29T07:17:49;13.15;;;6.63;;
44110;SDS011;29774;52.664;5.074;2023-04-29T07:20:14;8.73;;;4.82;;
44110;SDS011;29774;52.664;5.074;2023-04-29T07:22:40;7.80;;;4.95;;
44110;SDS011;29774;52.664;5.074;2023-04-29T07:25:06;9.65;;;5.80;;
44110;SDS011;29774;52.664;5.074;2023-04-29T07:27:32;8.52;;;4.93;;
44110;SDS011;29774;52.664;5.074;2023-04-29T07:29:59;11.38;;;5.50;;
44110;SDS011;29774;52.664;5.074;2023-04-29T07:32:25;12.45;;;6.05;;
44110;SDS011;29774;52.664;5.074;2023-04-29T07:34:51;10.27;;;7.00;;
44110;SDS011;29774;52.664;5.074;2023-04-29T07:37:17;11.02;;;6.18;;
44110;SDS011;29774;52.664;5.074;2023-04-29T07:39:42;10.43;;;6.28;;
44110;SDS011;29774;52.664;5.074;2023-04-29T07:42:08;8.27;;;5.35;;
44110;SDS011;29774;52.664;5.074;2023-04-29T07:44:34;11.27;;;6.25;;
44110;SDS011;29774;52.664;5.074;2023-04-29T07:47:00;8.43;;;4.60;;
44110;SDS011;29774;52.664;5.074;2023-04-29T07:49:26;10.73;;;5.38;;
44110;SDS011;29774;52.664;5.074;2023-04-29T07:51:52;8.65;;;4.35;;
44110;SDS011;29774;52.664;5.074;2023-04-29T07:54:17;9.93;;;7.03;;
44110;SDS011;29774;52.664;5.074;2023-04-29T07:56:44;6.03;;;4.57;;
44110;SDS011;29774;52.664;5.074;2023-04-29T07:59:10;9.88;;;6.00;;
44110;SDS011;29774;52.664;5.074;2023-04-29T08:01:35;11.35;;;6.90;;
44110;SDS011;29774;52.664;5.074;2023-04-29T08:04:01;8.35;;;5.50;;
44110;SDS011;29774;52.664;5.074;2023-04-29T08:06:27;9.52;;;5.63;;
44110;SDS011;29774;52.664;5.074;2023-04-29T08:08:53;8.35;;;5.57;;
44110;SDS011;29774;52.664;5.074;2023-04-29T08:11:20;11.40;;;6.15;;
44110;SDS011;29774;52.664;5.074;2023-04-29T08:13:48;10.00;;;5.28;;
44110;SDS011;29774;52.664;5.074;2023-04-29T08:16:14;9.82;;;6.07;;
44110;SDS011;29774;52.664;5.074;2023-04-29T08:18:39;10.23;;;5.60;;
44110;SDS011;29774;52.664;5.074;2023-04-29T08:21:05;6.85;;;4.57;;
44110;SDS011;29774;52.664;5.074;2023-04-29T08:23:31;10.38;;;5.47;;
44110;SDS011;29774;52.664;5.074;2023-04-29T08:25:57;7.55;;;5.28;;
44110;SDS011;29774;52.664;5.074;2023-04-29T08:28:23;8.98;;;5.80;;
44110;SDS011;29774;52.664;5.074;2023-04-29T08:30:49;6.90;;;4.93;;
44110;SDS011;29774;52.664;5.074;2023-04-29T08:33:15;7.55;;;4.32;;
44110;SDS011;29774;52.664;5.074;2023-04-29T08:35:41;11.52;;;4.78;;
44110;SDS011;29774;52.664;5.074;2023-04-29T08:38:07;10.52;;;6.25;;
44110;SDS011;29774;52.664;5.074;2023-04-29T08:40:44;8.80;;;5.57;;
44110;SDS011;29774;52.664;5.074;2023-04-29T08:43:12;12.23;;;6.40;;
44110;SDS011;29774;52.664;5.074;2023-04-29T08:45:40;8.98;;;5.30;;
44110;SDS011;29774;52.664;5.074;2023-04-29T08:48:07;7.13;;;4.72;;
44110;SDS011;29774;52.664;5.074;2023-04-29T08:50:39;7.93;;;4.95;;
44110;SDS011;29774;52.664;5.074;2023-04-29T08:53:06;8.73;;;5.20;;
44110;SDS011;29774;52.664;5.074;2023-04-29T08:55:37;7.07;;;4.57;;
44110;SDS011;29774;52.664;5.074;2023-04-29T08:58:07;7.90;;;5.65;;
44110;SDS011;29774;52.664;5.074;2023-04-29T09:00:34;7.55;;;4.13;;
44110;SDS011;29774;52.664;5.074;2023-04-29T09:03:01;5.38;;;4.40;;
44110;SDS011;29774;52.664;5.074;2023-04-29T09:05:36;6.15;;;4.40;;
44110;SDS011;29774;52.664;5.074;2023-04-29T09:08:05;10.35;;;5.55;;
44110;SDS011;29774;52.664;5.074;2023-04-29T09:10:32;5.85;;;3.58;;
44110;SDS011;29774;52.664;5.074;2023-04-29T09:13:00;8.32;;;5.38;;
44110;SDS011;29774;52.664;5.074;2023-04-29T09:15:26;6.93;;;5.18;;
44110;SDS011;29774;52.664;5.074;2023-04-29T09:17:51;7.53;;;5.03;;
44110;SDS011;29774;52.664;5.074;2023-04-29T09:25:19;7.18;;;3.97;;
44110;SDS011;29774;52.664;5.074;2023-04-29T09:27:45;6.10;;;3.95;;
44110;SDS011;29774;52.664;5.074;2023-04-29T09:30:11;10.55;;;4.82;;
44110;SDS011;29774;52.664;5.074;2023-04-29T09:32:37;8.18;;;4.18;;
44110;SDS011;29774;52.664;5.074;2023-04-29T09:38:12;7.63;;;4.20;;
44110;SDS011;29774;52.664;5.074;2023-04-29T09:40:42;5.38;;;3.97;;
44110;SDS011;29774;52.664;5.074;2023-04-29T09:43:12;9.05;;;5.20;;
44110;SDS011;29774;52.664;5.074;2023-04-29T09:45:40;6.70;;;4.30;;
44110;SDS011;29774;52.664;5.074;2023-04-29T09:48:08;8.15;;;4.85;;
44110;SDS011;29774;52.664;5.074;2023-04-29T09:50:35;4.65;;;3.90;;
44110;SDS011;29774;52.664;5.074;2023-04-29T09:53:05;8.25;;;4.75;;
44110;SDS011;29774;52.664;5.074;2023-04-29T09:56:19;7.70;;;4.72;;
44110;SDS011;29774;52.664;5.074;2023-04-29T09:58:35;6.25;;;4.57;;
44110;SDS011;29774;52.664;5.074;2023-04-29T10:01:02;11.70;;;4.65;;
44110;SDS011;29774;52.664;5.074;2023-04-29T10:03:33;5.90;;;3.88;;
44110;SDS011;29774;52.664;5.074;2023-04-29T10:06:00;7.75;;;5.05;;
44110;SDS011;29774;52.664;5.074;2023-04-29T10:08:28;7.10;;;3.85;;
44110;SDS011;29774;52.664;5.074;2023-04-29T10:10:56;7.38;;;4.22;;
44110;SDS011;29774;52.664;5.074;2023-04-29T10:13:25;7.78;;;5.10;;
44110;SDS011;29774;52.664;5.074;2023-04-29T10:15:57;8.05;;;4.75;;
44110;SDS011;29774;52.664;5.074;2023-04-29T10:18:35;11.13;;;4.25;;
44110;SDS011;29774;52.664;5.074;2023-04-29T10:21:02;6.30;;;5.05;;
44110;SDS011;29774;52.664;5.074;2023-04-29T10:23:33;6.82;;;4.70;;
44110;SDS011;29774;52.664;5.074;2023-04-29T10:26:00;6.65;;;4.10;;
44110;SDS011;29774;52.664;5.074;2023-04-29T10:28:29;6.90;;;4.53;;
44110;SDS011;29774;52.664;5.074;2023-04-29T10:30:57;6.05;;;4.47;;
44110;SDS011;29774;52.664;5.074;2023-04-29T10:33:31;7.70;;;4.75;;
44110;SDS011;29774;52.664;5.074;2023-04-29T10:35:59;8.30;;;4.82;;
44110;SDS011;29774;52.664;5.074;2023-04-29T10:38:37;8.32;;;4.88;;
44110;SDS011;29774;52.664;5.074;2023-04-29T10:41:12;8.07;;;4.70;;
44110;SDS011;29774;52.664;5.074;2023-04-29T10:43:43;8.65;;;5.07;;
44110;SDS011;29774;52.664;5.074;2023-04-29T10:46:20;5.78;;;4.32;;
44110;SDS011;29774;52.664;5.074;2023-04-29T10:48:55;7.10;;;3.50;;
44110;SDS011;29774;52.664;5.074;2023-04-29T10:51:30;6.43;;;4.70;;
44110;SDS011;29774;52.664;5.074;2023-04-29T10:59:08;11.68;;;4.70;;
44110;SDS011;29774;52.664;5.074;2023-04-29T11:01:45;7.50;;;4.65;;
44110;SDS011;29774;52.664;5.074;2023-04-29T11:04:11;8.45;;;4.05;;
44110;SDS011;29774;52.664;5.074;2023-04-29T11:06:38;6.80;;;3.83;;
44110;SDS011;29774;52.664;5.074;2023-04-29T11:09:12;6.25;;;3.40;;
44110;SDS011;29774;52.664;5.074;2023-04-29T11:11:46;5.55;;;3.83;;
44110;SDS011;29774;52.664;5.074;2023-04-29T11:14:28;6.28;;;3.28;;
44110;SDS011;29774;52.664;5.074;2023-04-29T11:17:03;5.57;;;3.08;;
44110;SDS011;29774;52.664;5.074;2023-04-29T11:19:33;5.90;;;3.42;;
44110;SDS011;29774;52.664;5.074;2023-04-29T11:22:34;4.85;;;3.45;;
44110;SDS011;29774;52.664;5.074;2023-04-29T11:25:01;4.75;;;2.65;;
44110;SDS011;29774;52.664;5.074;2023-04-29T11:27:33;5.57;;;3.53;;
44110;SDS011;29774;52.664;5.074;2023-04-29T11:30:00;6.05;;;3.08;;
44110;SDS011;29774;52.664;5.074;2023-04-29T11:32:33;3.00;;;1.95;;
44110;SDS011;29774;52.664;5.074;2023-04-29T11:35:11;3.30;;;2.45;;
44110;SDS011;29774;52.664;5.074;2023-04-29T11:37:41;5.60;;;2.38;;
44110;SDS011;29774;52.664;5.074;2023-04-29T11:40:09;3.97;;;2.40;;
44110;SDS011;29774;52.664;5.074;2023-04-29T11:42:48;3.78;;;1.85;;
44110;SDS011;29774;52.664;5.074;2023-04-29T11:45:16;2.15;;;1.95;;
44110;SDS011;29774;52.664;5.074;2023-04-29T11:47:43;1.63;;;1.50;;
44110;SDS011;29774;52.664;5.074;2023-04-29T11:50:10;4.45;;;2.03;;
44110;SDS011;29774;52.664;5.074;2023-04-29T11:52:39;2.13;;;1.88;;
44110;SDS011;29774;52.664;5.074;2023-04-29T11:55:08;3.00;;;1.90;;
44110;SDS011;29774;52.664;5.074;2023-04-29T11:57:34;2.70;;;1.92;;
44110;SDS011;29774;52.664;5.074;2023-04-29T12:00:00;3.35;;;1.95;;
44110;SDS011;29774;52.664;5.074;2023-04-29T12:02:30;2.80;;;1.52;;
44110;SDS011;29774;52.664;5.074;2023-04-29T12:04:56;1.65;;;1.48;;
44110;SDS011;29774;52.664;5.074;2023-04-29T12:07:22;10.13;;;2.67;;
44110;SDS011;29774;52.664;5.074;2023-04-29T12:09:48;2.25;;;1.75;;
44110;SDS011;29774;52.664;5.074;2023-04-29T12:12:14;2.47;;;1.60;;
44110;SDS011;29774;52.664;5.074;2023-04-29T12:14:41;2.30;;;1.40;;
44110;SDS011;29774;52.664;5.074;2023-04-29T12:17:10;4.85;;;2.35;;
44110;SDS011;29774;52.664;5.074;2023-04-29T12:19:36;3.15;;;2.17;;
44110;SDS011;29774;52.664;5.074;2023-04-29T12:22:04;2.97;;;2.15;;
44110;SDS011;29774;52.664;5.074;2023-04-29T12:24:34;2.15;;;1.92;;
44110;SDS011;29774;52.664;5.074;2023-04-29T12:27:01;1.50;;;1.25;;
44110;SDS011;29774;52.664;5.074;2023-04-29T12:29:26;3.60;;;1.90;;
44110;SDS011;29774;52.664;5.074;2023-04-29T12:31:52;3.40;;;1.88;;
44110;SDS011;29774;52.664;5.074;2023-04-29T12:34:30;2.75;;;1.75;;
44110;SDS011;29774;52.664;5.074;2023-04-29T12:36:59;2.70;;;1.52;;
44110;SDS011;29774;52.664;5.074;2023-04-29T12:39:26;1.60;;;1.50;;
44110;SDS011;29774;52.664;5.074;2023-04-29T12:41:58;3.40;;;1.77;;
44110;SDS011;29774;52.664;5.074;2023-04-29T12:44:24;4.30;;;1.77;;
44110;SDS011;29774;52.664;5.074;2023-04-29T12:46:50;1.70;;;1.60;;
44110;SDS011;29774;52.664;5.074;2023-04-29T12:49:17;1.55;;;1.45;;
44110;SDS011;29774;52.664;5.074;2023-04-29T12:51:43;4.10;;;1.48;;
44110;SDS011;29774;52.664;5.074;2023-04-29T12:54:08;3.33;;;2.20;;
44110;SDS011;29774;52.664;5.074;2023-04-29T12:56:36;2.75;;;1.48;;
44110;SDS011;29774;52.664;5.074;2023-04-29T12:59:08;3.80;;;1.63;;
44110;SDS011;29774;52.664;5.074;2023-04-29T13:01:36;2.35;;;1.75;;
44110;SDS011;29774;52.664;5.074;2023-04-29T13:04:02;4.28;;;1.75;;
44110;SDS011;29774;52.664;5.074;2023-04-29T13:06:30;1.80;;;1.50;;
44110;SDS011;29774;52.664;5.074;2023-04-29T13:08:56;2.65;;;2.05;;
44110;SDS011;29774;52.664;5.074;2023-04-29T13:11:22;6.10;;;1.48;;
44110;SDS011;29774;52.664;5.074;2023-04-29T13:13:48;3.72;;;1.45;;
44110;SDS011;29774;52.664;5.074;2023-04-29T13:16:13;1.45;;;1.00;;
44110;SDS011;29774;52.664;5.074;2023-04-29T13:18:39;2.35;;;1.77;;
44110;SDS011;29774;52.664;5.074;2023-04-29T13:21:05;5.25;;;1.67;;
44110;SDS011;29774;52.664;5.074;2023-04-29T13:23:31;2.33;;;1.55;;
44110;SDS011;29774;52.664;5.074;2023-04-29T13:25:56;1.63;;;1.52;;
44110;SDS011;29774;52.664;5.074;2023-04-29T13:28:22;1.33;;;1.20;;
44110;SDS011;29774;52.664;5.074;2023-04-29T13:30:48;3.40;;;2.20;;
44110;SDS011;29774;52.664;5.074;2023-04-29T13:33:14;4.88;;;2.05;;
44110;SDS011;29774;52.664;5.074;2023-04-29T13:35:40;3.20;;;1.30;;
44110;SDS011;29774;52.664;5.074;2023-04-29T13:38:08;3.92;;;1.88;;
44110;SDS011;29774;52.664;5.074;2023-04-29T13:40:34;2.92;;;1.92;;
44110;SDS011;29774;52.664;5.074;2023-04-29T13:43:00;1.77;;;1.55;;
44110;SDS011;29774;52.664;5.074;2023-04-29T13:45:26;2.40;;;1.83;;
44110;SDS011;29774;52.664;5.074;2023-04-29T13:47:52;4.10;;;1.92;;
44110;SDS011;29774;52.664;5.074;2023-04-29T13:50:17;3.47;;;1.73;;
44110;SDS011;29774;52.664;5.074;2023-04-29T13:52:43;2.40;;;1.85;;
44110;SDS011;29774;52.664;5.074;2023-04-29T13:55:09;3.55;;;1.80;;
44110;SDS011;29774;52.664;5.074;2023-04-29T13:57:34;4.20;;;1.77;;
44110;SDS011;29774;52.664;5.074;2023-04-29T14:00:00;3.30;;;1.92;;
44110;SDS011;29774;52.664;5.074;2023-04-29T14:02:25;2.17;;;1.40;;
44110;SDS011;29774;52.664;5.074;2023-04-29T14:04:51;5.55;;;2.90;;
44110;SDS011;29774;52.664;5.074;2023-04-29T14:07:17;3.75;;;2.25;;
44110;SDS011;29774;52.664;5.074;2023-04-29T14:09:42;2.05;;;1.70;;
44110;SDS011;29774;52.664;5.074;2023-04-29T14:12:08;5.70;;;2.85;;
44110;SDS011;29774;52.664;5.074;2023-04-29T14:14:34;3.80;;;1.98;;
44110;SDS011;29774;52.664;5.074;2023-04-29T14:16:59;8.32;;;2.05;;
44110;SDS011;29774;52.664;5.074;2023-04-29T14:19:25;6.25;;;2.78;;
44110;SDS011;29774;52.664;5.074;2023-04-29T14:21:51;5.13;;;2.28;;
44110;SDS011;29774;52.664;5.074;2023-04-29T14:24:16;4.97;;;2.55;;
44110;SDS011;29774;52.664;5.074;2023-04-29T14:26:42;8.63;;;3.20;;
44110;SDS011;29774;52.664;5.074;2023-04-29T14:29:07;5.22;;;2.50;;
44110;SDS011;29774;52.664;5.074;2023-04-29T14:31:34;4.35;;;2.00;;
44110;SDS011;29774;52.664;5.074;2023-04-29T14:34:01;4.00;;;2.25;;
44110;SDS011;29774;52.664;5.074;2023-04-29T14:36:28;3.22;;;2.15;;
44110;SDS011;29774;52.664;5.074;2023-04-29T14:38:53;3.58;;;1.83;;
44110;SDS011;29774;52.664;5.074;2023-04-29T14:41:19;3.63;;;2.50;;
44110;SDS011;29774;52.664;5.074;2023-04-29T14:43:45;2.42;;;1.73;;
44110;SDS011;29774;52.664;5.074;2023-04-29T14:46:11;5.25;;;2.50;;
44110;SDS011;29774;52.664;5.074;2023-04-29T14:48:37;4.30;;;2.33;;
44110;SDS011;29774;52.664;5.074;2023-04-29T14:51:03;2.33;;;2.03;;
44110;SDS011;29774;52.664;5.074;2023-04-29T14:53:28;5.35;;;2.38;;
44110;SDS011;29774;52.664;5.074;2023-04-29T14:55:54;4.07;;;2.28;;
44110;SDS011;29774;52.664;5.074;2023-04-29T14:58:20;2.67;;;1.92;;
44110;SDS011;29774;52.664;5.074;2023-04-29T15:00:45;3.10;;;2.00;;